createdAt,value
2018-06-21T00:00:29.914Z,15.10
2018-06-21T00:02:59.382Z,13.00
2018-06-21T00:05:28.934Z,13.60
2018-06-21T00:07:58.425Z,20.43
2018-06-21T00:10:27.963Z,16.27
2018-06-21T00:12:57.593Z,18.50
2018-06-21T00:15:27.073Z,15.67
2018-06-21T00:17:56.638Z,14.73
2018-06-21T00:20:25.875Z,14.57
2018-06-21T00:22:55.373Z,13.17
2018-06-21T00:25:24.893Z,13.80
2018-06-21T00:27:54.364Z,13.43
2018-06-21T00:30:23.832Z,13.50
2018-06-21T00:32:53.379Z,12.70
2018-06-21T00:35:22.910Z,14.13
2018-06-21T00:37:52.426Z,16.43
2018-06-21T00:40:21.961Z,15.20
2018-06-21T00:42:51.504Z,18.40
2018-06-21T00:45:21.012Z,16.20
2018-06-21T00:47:50.571Z,16.53
2018-06-21T00:50:20.133Z,13.17
2018-06-21T00:52:49.647Z,12.77
2018-06-21T00:55:36.216Z,12.60
2018-06-21T00:58:05.730Z,11.57
2018-06-21T01:00:35.394Z,11.90
2018-06-21T01:03:04.978Z,14.67
2018-06-21T01:05:34.507Z,16.40
2018-06-21T01:08:03.923Z,15.90
2018-06-21T01:10:33.367Z,12.30
2018-06-21T01:13:02.906Z,11.47
2018-06-21T01:15:32.503Z,12.10
2018-06-21T01:18:01.949Z,12.80
2018-06-21T01:20:31.426Z,12.67
2018-06-21T01:23:00.870Z,10.97
2018-06-21T01:25:30.338Z,12.80
2018-06-21T01:27:59.781Z,13.10
2018-06-21T01:30:29.253Z,13.83
2018-06-21T01:32:58.977Z,12.13
2018-06-21T01:35:28.524Z,18.10
2018-06-21T01:37:57.936Z,11.67
2018-06-21T01:40:27.480Z,13.40
2018-06-21T01:42:56.958Z,15.13
2018-06-21T01:45:26.446Z,11.83
2018-06-21T01:47:55.859Z,12.13
2018-06-21T01:50:25.334Z,9.73
2018-06-21T01:52:54.761Z,10.07
2018-06-21T01:55:24.234Z,9.37
2018-06-21T01:57:53.719Z,12.33
2018-06-21T02:00:23.253Z,8.70
2018-06-21T02:02:52.773Z,8.63
2018-06-21T02:05:22.312Z,8.90
2018-06-21T02:07:51.817Z,7.93
2018-06-21T02:10:21.280Z,9.10
2018-06-21T02:12:50.705Z,8.20
2018-06-21T02:15:20.146Z,9.47
2018-06-21T02:17:49.563Z,9.93
2018-06-21T02:20:18.974Z,9.33
2018-06-21T02:22:48.485Z,9.00
2018-06-21T02:25:18.105Z,9.70
2018-06-21T02:27:47.537Z,9.57
2018-06-21T02:30:16.981Z,9.80
2018-06-21T02:32:46.441Z,10.13
2018-06-21T02:35:15.860Z,13.10
2018-06-21T02:37:45.300Z,12.20
2018-06-21T02:40:14.463Z,12.13
2018-06-21T02:42:43.964Z,12.33
2018-06-21T02:45:15.394Z,13.33
2018-06-21T02:47:44.847Z,10.83
2018-06-21T02:50:14.295Z,12.90
2018-06-21T02:52:43.781Z,12.33
2018-06-21T02:55:13.243Z,11.77
2018-06-21T02:57:42.696Z,11.97
2018-06-21T03:00:12.153Z,16.70
2018-06-21T03:02:41.617Z,12.50
2018-06-21T03:05:11.093Z,13.33
2018-06-21T03:07:40.489Z,12.07
2018-06-21T03:10:09.921Z,12.53
2018-06-21T03:12:39.414Z,11.70
2018-06-21T03:15:09.088Z,16.60
2018-06-21T03:17:38.537Z,12.20
2018-06-21T03:20:07.997Z,15.80
2018-06-21T03:22:37.469Z,12.90
2018-06-21T03:25:06.934Z,13.03
2018-06-21T03:27:36.409Z,12.57
2018-06-21T03:30:05.868Z,12.60
2018-06-21T03:32:35.357Z,13.27
2018-06-21T03:35:04.857Z,13.20
2018-06-21T03:37:34.033Z,12.47
2018-06-21T03:40:03.495Z,12.63
2018-06-21T03:42:32.921Z,13.03
2018-06-21T03:45:02.423Z,12.07
2018-06-21T03:47:31.851Z,15.50
2018-06-21T03:50:01.386Z,13.73
2018-06-21T03:52:30.865Z,12.60
2018-06-21T03:55:00.267Z,11.57
2018-06-21T03:57:29.785Z,11.67
2018-06-21T03:59:58.978Z,11.37
2018-06-21T04:02:28.188Z,11.30
2018-06-21T04:04:57.615Z,12.10
2018-06-21T04:07:27.055Z,15.60
2018-06-21T04:09:56.473Z,17.60
2018-06-21T04:12:25.893Z,12.27
2018-06-21T04:14:55.329Z,12.63
2018-06-21T04:17:24.867Z,17.93
2018-06-21T04:19:54.308Z,11.17
2018-06-21T04:22:23.808Z,17.80
2018-06-21T04:24:53.270Z,11.63
2018-06-21T04:27:22.806Z,11.40
2018-06-21T04:29:52.226Z,10.13
2018-06-21T04:32:21.683Z,10.33
2018-06-21T04:34:51.151Z,18.87
2018-06-21T04:37:21.528Z,10.83
2018-06-21T04:39:50.985Z,15.53
2018-06-21T04:42:20.415Z,10.93
2018-06-21T04:44:49.866Z,10.83
2018-06-21T04:47:19.268Z,11.77
2018-06-21T04:49:48.677Z,14.60
2018-06-21T04:52:18.147Z,13.00
2018-06-21T04:54:47.673Z,11.03
2018-06-21T04:57:17.122Z,10.03
2018-06-21T04:59:46.565Z,9.77
2018-06-21T05:02:16.003Z,9.17
2018-06-21T05:04:45.462Z,9.47
2018-06-21T05:07:14.934Z,9.43
2018-06-21T05:09:44.336Z,14.03
2018-06-21T05:12:13.759Z,15.83
2018-06-21T05:14:43.173Z,11.67
2018-06-21T05:17:12.561Z,13.20
2018-06-21T05:19:42.023Z,9.27
2018-06-21T05:22:11.505Z,12.17
2018-06-21T05:24:40.912Z,9.77
2018-06-21T05:27:10.598Z,10.67
2018-06-21T05:29:40.050Z,12.07
2018-06-21T05:32:09.482Z,10.17
2018-06-21T05:34:38.889Z,9.67
2018-06-21T05:37:08.296Z,9.40
2018-06-21T05:39:37.707Z,7.97
2018-06-21T05:42:07.098Z,7.87
2018-06-21T05:44:36.485Z,10.40
2018-06-21T05:47:05.944Z,8.33
2018-06-21T05:49:35.343Z,12.90
2018-06-21T05:52:04.731Z,8.50
2018-06-21T05:54:34.109Z,7.17
2018-06-21T05:57:03.571Z,6.67
2018-06-21T05:59:32.956Z,6.63
2018-06-21T06:02:02.350Z,6.07
2018-06-21T06:04:31.739Z,4.50
2018-06-21T06:07:01.149Z,10.43
2018-06-21T06:09:30.606Z,6.80
2018-06-21T06:11:59.965Z,9.73
2018-06-21T06:14:29.382Z,4.53
2018-06-21T06:16:58.837Z,4.20
2018-06-21T06:19:28.223Z,6.90
2018-06-21T06:21:57.555Z,5.23
2018-06-21T06:24:27.186Z,4.67
2018-06-21T06:26:56.610Z,4.40
2018-06-21T06:29:25.960Z,4.63
2018-06-21T06:31:55.731Z,3.23
2018-06-21T06:34:25.186Z,4.73
2018-06-21T06:36:54.571Z,4.43
2018-06-21T06:39:24.005Z,4.80
2018-06-21T06:41:53.423Z,2.83
2018-06-21T06:44:22.871Z,4.00
2018-06-21T06:46:52.396Z,3.13
2018-06-21T06:49:21.789Z,5.33
2018-06-21T06:51:51.231Z,2.93
2018-06-21T06:54:20.610Z,2.43
2018-06-21T06:56:50.018Z,7.73
2018-06-21T06:59:19.457Z,7.60
2018-06-21T07:01:48.829Z,4.20
2018-06-21T07:04:18.252Z,3.60
2018-06-21T07:06:47.651Z,6.27
2018-06-21T07:09:17.050Z,8.60
2018-06-21T07:11:46.481Z,5.67
2018-06-21T07:14:15.957Z,5.93
2018-06-21T07:16:45.338Z,8.63
2018-06-21T07:19:14.765Z,4.10
2018-06-21T07:21:44.146Z,5.43
2018-06-21T07:24:13.572Z,12.33
2018-06-21T07:26:43.024Z,10.03
2018-06-21T07:29:12.380Z,4.67
2018-06-21T07:31:41.785Z,5.70
2018-06-21T07:34:11.165Z,9.00
2018-06-21T07:36:40.597Z,4.70
2018-06-21T07:39:10.852Z,8.00
2018-06-21T07:41:40.355Z,7.27
2018-06-21T07:44:09.779Z,4.50
2018-06-21T07:46:39.192Z,11.83
2018-06-21T07:49:08.670Z,6.40
2018-06-21T07:51:38.144Z,6.73
2018-06-21T07:54:07.577Z,6.27
2018-06-21T07:56:36.950Z,4.10
2018-06-21T07:59:06.420Z,8.10
2018-06-21T08:01:35.925Z,4.43
2018-06-21T08:04:05.405Z,5.80
2018-06-21T08:06:34.851Z,5.37
2018-06-21T08:09:06.505Z,6.67
2018-06-21T08:11:35.937Z,5.73
2018-06-21T08:14:05.457Z,9.03
2018-06-21T08:16:35.007Z,4.97
2018-06-21T08:19:04.590Z,4.60
2018-06-21T08:21:34.236Z,4.33
2018-06-21T08:24:03.579Z,6.10
2018-06-21T08:26:33.020Z,5.33
2018-06-21T08:29:02.406Z,7.57
2018-06-21T08:31:31.853Z,11.73
2018-06-21T08:34:01.295Z,3.70
2018-06-21T08:36:30.673Z,4.10
2018-06-21T08:39:00.233Z,5.10
2018-06-21T08:41:33.951Z,9.00
2018-06-21T08:44:03.320Z,7.20
2018-06-21T08:46:33.265Z,8.00
2018-06-21T08:49:02.766Z,4.10
2018-06-21T08:51:32.129Z,5.77
2018-06-21T08:54:01.527Z,4.63
2018-06-21T08:56:30.954Z,6.20
2018-06-21T08:59:00.385Z,2.80
2018-06-21T09:01:29.873Z,5.73
2018-06-21T09:03:59.239Z,4.20
2018-06-21T09:06:28.710Z,3.57
2018-06-21T09:08:58.140Z,4.00
2018-06-21T09:11:27.568Z,6.87
2018-06-21T09:13:56.970Z,8.53
2018-06-21T09:16:26.717Z,9.63
2018-06-21T09:18:56.305Z,17.30
2018-06-21T09:21:25.733Z,19.83
2018-06-21T09:23:55.148Z,11.93
2018-06-21T09:26:24.575Z,12.50
2018-06-21T09:28:53.945Z,16.03
2018-06-21T09:31:23.350Z,4.77
2018-06-21T09:33:52.703Z,14.17
2018-06-21T09:36:22.081Z,24.70
2018-06-21T09:38:56.672Z,30.63
2018-06-21T09:41:31.242Z,25.10
2018-06-21T09:44:05.973Z,41.97
2018-06-21T09:46:40.591Z,14.03
2018-06-21T09:49:10.037Z,23.33
2018-06-21T09:51:39.466Z,11.23
2018-06-21T09:54:08.854Z,6.70
2018-06-21T09:56:38.337Z,8.90
2018-06-21T09:59:07.714Z,4.40
2018-06-21T10:01:37.152Z,1.47
2018-06-21T10:04:07.003Z,7.70
2018-06-21T10:06:36.429Z,7.90
2018-06-21T10:09:07.186Z,4.40
2018-06-21T10:11:36.596Z,1.57
2018-06-21T10:14:06.027Z,0.70
2018-06-21T10:16:35.566Z,1.93
2018-06-21T10:19:05.027Z,2.10
2018-06-21T10:21:34.412Z,3.20
2018-06-21T10:24:03.765Z,6.27
2018-06-21T10:26:33.134Z,1.47
2018-06-21T10:29:02.594Z,2.07
2018-06-21T10:31:31.988Z,1.33
2018-06-21T10:34:01.172Z,2.37
2018-06-21T10:36:30.574Z,2.70
2018-06-21T10:39:00.044Z,1.20
2018-06-21T10:41:29.512Z,2.03
2018-06-21T10:43:58.914Z,4.70
2018-06-21T10:46:28.389Z,3.07
2018-06-21T10:48:57.811Z,1.53
2018-06-21T10:51:27.192Z,1.27
2018-06-21T10:53:56.606Z,2.90
2018-06-21T10:56:26.046Z,1.90
2018-06-21T10:58:55.652Z,2.63
2018-06-21T11:01:25.097Z,1.40
2018-06-21T11:03:54.438Z,1.40
2018-06-21T11:06:24.363Z,1.47
2018-06-21T11:08:53.720Z,1.53
2018-06-21T11:11:23.207Z,1.70
2018-06-21T11:13:52.635Z,1.30
2018-06-21T11:16:22.052Z,2.33
2018-06-21T11:18:51.554Z,2.33
2018-06-21T11:21:21.040Z,1.80
2018-06-21T11:23:50.466Z,4.70
2018-06-21T11:26:19.893Z,3.97
2018-06-21T11:28:49.405Z,2.80
2018-06-21T11:31:18.807Z,4.13
2018-06-21T11:33:48.239Z,8.23
2018-06-21T11:36:17.664Z,4.27
2018-06-21T11:38:47.048Z,2.90
2018-06-21T11:41:16.467Z,1.40
2018-06-21T11:43:45.849Z,7.90
2018-06-21T11:46:15.219Z,5.70
2018-06-21T11:48:44.574Z,2.27
2018-06-21T11:51:14.109Z,3.13
2018-06-21T11:53:43.494Z,11.03
2018-06-21T11:56:12.913Z,7.53
2018-06-21T11:58:42.304Z,6.93
2018-06-21T12:01:11.826Z,2.97
2018-06-21T12:03:41.245Z,3.43
2018-06-21T12:06:10.661Z,6.33
2018-06-21T12:08:40.298Z,7.20
2018-06-21T12:11:09.723Z,6.17
2018-06-21T12:13:39.458Z,4.50
2018-06-21T12:16:08.901Z,3.57
2018-06-21T12:18:38.374Z,3.67
2018-06-21T12:21:07.740Z,2.77
2018-06-21T12:23:37.125Z,4.10
2018-06-21T12:26:06.656Z,4.67
2018-06-21T12:28:36.020Z,7.27
2018-06-21T12:31:05.479Z,4.73
2018-06-21T12:33:34.904Z,3.23
2018-06-21T12:36:04.464Z,10.60
2018-06-21T12:38:33.879Z,5.30
2018-06-21T12:41:03.303Z,12.73
2018-06-21T12:43:32.690Z,10.17
2018-06-21T12:46:02.115Z,6.17
2018-06-21T12:48:31.525Z,4.80
2018-06-21T12:51:01.006Z,6.00
2018-06-21T12:53:30.449Z,11.27
2018-06-21T12:55:59.857Z,8.03
2018-06-21T12:58:29.256Z,10.90
2018-06-21T13:00:58.740Z,4.97
2018-06-21T13:03:28.096Z,5.10
2018-06-21T13:05:57.489Z,3.73
2018-06-21T13:08:44.008Z,11.60
2018-06-21T13:12:29.555Z,10.13
2018-06-21T13:14:58.945Z,3.77
2018-06-21T13:17:30.458Z,2.43
2018-06-21T13:20:01.046Z,5.40
2018-06-21T13:22:30.456Z,6.10
2018-06-21T13:25:00.015Z,6.93
2018-06-21T13:27:29.436Z,5.53
2018-06-21T13:29:59.004Z,5.50
2018-06-21T13:32:28.451Z,9.00
2018-06-21T13:34:57.860Z,5.17
2018-06-21T13:37:27.284Z,10.73
2018-06-21T13:39:56.739Z,5.37
2018-06-21T13:42:26.156Z,16.73
2018-06-21T13:44:55.544Z,7.43
2018-06-21T13:47:24.971Z,6.20
2018-06-21T13:49:54.472Z,3.80
2018-06-21T13:52:23.894Z,7.33
2018-06-21T13:54:53.316Z,1.70
2018-06-21T13:57:22.841Z,6.27
2018-06-21T13:59:52.309Z,12.37
2018-06-21T14:02:21.651Z,9.53
2018-06-21T14:04:51.181Z,11.83
2018-06-21T14:07:20.654Z,8.30
2018-06-21T14:09:50.038Z,7.67
2018-06-21T14:12:19.526Z,13.37
2018-06-21T14:14:49.226Z,4.87
2018-06-21T14:17:18.582Z,11.03
2018-06-21T14:19:48.043Z,5.90
2018-06-21T14:22:17.623Z,4.70
2018-06-21T14:24:47.124Z,5.77
2018-06-21T14:27:16.588Z,6.40
2018-06-21T14:29:45.982Z,9.30
2018-06-21T14:32:15.463Z,3.57
2018-06-21T14:34:44.855Z,15.70
2018-06-21T14:37:14.280Z,11.80
2018-06-21T14:39:43.704Z,5.60
2018-06-21T14:42:13.083Z,3.63
2018-06-21T14:44:42.483Z,6.00
2018-06-21T14:47:11.903Z,3.17
2018-06-21T14:49:41.370Z,6.33
2018-06-21T14:52:10.826Z,4.30
2018-06-21T14:54:40.240Z,13.53
2018-06-21T14:57:10.258Z,4.50
2018-06-21T14:59:39.607Z,7.17
2018-06-21T15:02:09.058Z,5.10
2018-06-21T15:04:38.451Z,8.07
2018-06-21T15:07:07.804Z,7.70
2018-06-21T15:09:37.252Z,10.97
2018-06-21T15:12:06.978Z,16.90
2018-06-21T15:14:36.374Z,9.97
2018-06-21T15:17:05.809Z,7.00
2018-06-21T15:19:35.252Z,9.40
2018-06-21T15:22:04.672Z,9.07
2018-06-21T15:24:34.092Z,16.53
2018-06-21T15:27:03.491Z,10.80
2018-06-21T15:29:32.864Z,4.33
2018-06-21T15:32:02.269Z,5.37
2018-06-21T15:34:31.698Z,7.47
2018-06-21T15:37:02.123Z,8.63
2018-06-21T15:39:31.589Z,5.30
2018-06-21T15:42:01.037Z,6.13
2018-06-21T15:44:30.450Z,4.57
2018-06-21T15:46:59.859Z,2.73
2018-06-21T15:49:29.276Z,6.77
2018-06-21T15:51:58.702Z,6.17
2018-06-21T15:54:28.132Z,6.57
2018-06-21T15:56:57.652Z,5.40
2018-06-21T15:59:27.063Z,4.57
2018-06-21T16:01:56.687Z,6.53
2018-06-21T16:04:26.078Z,6.63
2018-06-21T16:06:55.435Z,10.90
2018-06-21T16:09:24.874Z,9.93
2018-06-21T16:11:54.321Z,7.43
2018-06-21T16:14:23.758Z,10.20
2018-06-21T16:16:53.166Z,9.90
2018-06-21T16:19:22.629Z,8.30
2018-06-21T16:21:52.097Z,5.90
2018-06-21T16:24:21.496Z,8.90
2018-06-21T16:26:50.930Z,9.10
2018-06-21T16:29:20.374Z,3.53
2018-06-21T16:31:49.879Z,3.17
2018-06-21T16:34:19.336Z,5.10
2018-06-21T16:36:48.761Z,5.63
2018-06-21T16:39:18.187Z,1.33
2018-06-21T16:41:47.623Z,7.70
2018-06-21T16:44:17.011Z,3.33
2018-06-21T16:46:46.600Z,32.97
2018-06-21T16:49:15.939Z,6.20
2018-06-21T16:51:45.405Z,5.30
2018-06-21T16:54:14.878Z,7.43
2018-06-21T16:56:44.365Z,8.50
2018-06-21T16:59:13.841Z,5.13
2018-06-21T17:01:43.294Z,10.50
2018-06-21T17:04:12.740Z,10.43
2018-06-21T17:06:42.227Z,4.33
2018-06-21T17:09:12.047Z,6.43
2018-06-21T17:11:41.760Z,4.10
2018-06-21T17:14:11.177Z,6.87
2018-06-21T17:16:40.634Z,18.87
2018-06-21T17:19:10.070Z,10.20
2018-06-21T17:21:39.540Z,4.43
2018-06-21T17:24:09.026Z,4.30
2018-06-21T17:26:38.228Z,12.17
2018-06-21T17:29:07.613Z,14.53
2018-06-21T17:31:36.972Z,10.80
2018-06-21T17:34:06.359Z,5.70
2018-06-21T17:36:35.789Z,6.50
2018-06-21T17:39:07.786Z,6.23
2018-06-21T17:41:37.230Z,2.13
2018-06-21T17:44:06.637Z,3.47
2018-06-21T17:46:36.498Z,5.77
2018-06-21T17:49:05.971Z,4.63
2018-06-21T17:51:35.331Z,8.40
2018-06-21T17:54:04.789Z,2.50
2018-06-21T17:56:34.313Z,1.27
2018-06-21T17:59:03.940Z,4.73
2018-06-21T18:01:33.117Z,3.17
2018-06-21T18:04:02.513Z,1.33
2018-06-21T18:06:38.095Z,3.93
2018-06-21T18:09:09.528Z,6.90
2018-06-21T18:11:38.988Z,7.37
2018-06-21T18:14:08.419Z,3.60
2018-06-21T18:16:37.756Z,3.90
2018-06-21T18:19:07.204Z,3.23
2018-06-21T18:21:36.630Z,3.97
2018-06-21T18:24:06.351Z,0.90
2018-06-21T18:26:35.924Z,3.63
2018-06-21T18:29:05.329Z,7.03
2018-06-21T18:31:34.653Z,1.43
2018-06-21T18:34:04.100Z,4.37
2018-06-21T18:36:33.496Z,1.93
2018-06-21T18:39:02.966Z,1.73
2018-06-21T18:41:32.405Z,3.00
2018-06-21T18:44:01.850Z,4.13
2018-06-21T18:46:31.307Z,2.17
2018-06-21T18:49:00.792Z,5.97
2018-06-21T18:51:30.229Z,2.70
2018-06-21T18:53:59.624Z,1.43
2018-06-21T18:56:29.066Z,3.77
2018-06-21T18:58:58.495Z,1.73
2018-06-21T19:01:27.887Z,3.20
2018-06-21T19:03:57.692Z,4.10
2018-06-21T19:06:32.370Z,5.23
2018-06-21T19:09:07.072Z,3.63
2018-06-21T19:11:41.755Z,2.53
2018-06-21T19:14:11.132Z,3.63
2018-06-21T19:16:40.531Z,2.40
2018-06-21T19:19:09.912Z,3.47
2018-06-21T19:21:39.407Z,1.70
2018-06-21T19:24:08.817Z,0.70
2018-06-21T19:26:38.171Z,7.67
2018-06-21T19:29:07.575Z,2.30
2018-06-21T19:31:36.999Z,3.57
2018-06-21T19:34:06.399Z,3.73
2018-06-21T19:36:35.939Z,1.10
2018-06-21T19:39:08.226Z,1.80
2018-06-21T19:41:38.283Z,3.87
2018-06-21T19:44:08.497Z,4.00
2018-06-21T19:46:38.148Z,6.73
2018-06-21T19:49:07.698Z,1.90
2018-06-21T19:51:37.126Z,1.50
2018-06-21T19:54:06.570Z,5.47
2018-06-21T19:56:35.981Z,5.27
2018-06-21T19:59:05.559Z,5.70
2018-06-21T20:01:35.013Z,3.33
2018-06-21T20:04:04.428Z,5.17
2018-06-21T20:06:33.975Z,5.63
2018-06-21T20:09:03.529Z,4.07
2018-06-21T20:11:38.095Z,1.30
2018-06-21T20:14:07.519Z,4.83
2018-06-21T20:16:36.934Z,5.57
2018-06-21T20:19:13.148Z,4.17
2018-06-21T20:21:42.853Z,2.07
2018-06-21T20:24:12.223Z,3.63
2018-06-21T20:26:41.742Z,4.23
2018-06-21T20:29:16.359Z,8.67
2018-06-21T20:31:45.738Z,4.10
2018-06-21T20:34:15.119Z,3.13
2018-06-21T20:36:44.578Z,1.57
2018-06-21T20:39:14.021Z,3.60
2018-06-21T20:41:43.488Z,4.67
2018-06-21T20:44:12.915Z,2.60
2018-06-21T20:46:42.334Z,2.40
2018-06-21T20:49:11.730Z,5.23
2018-06-21T20:51:41.185Z,3.87
2018-06-21T20:54:10.636Z,3.90
2018-06-21T20:56:40.112Z,2.10
2018-06-21T20:59:09.573Z,5.83
2018-06-21T21:01:39.021Z,7.67
2018-06-21T21:04:08.493Z,8.10
2018-06-21T21:06:37.945Z,12.70
2018-06-21T21:09:08.220Z,4.40
2018-06-21T21:11:37.643Z,3.90
2018-06-21T21:14:07.097Z,5.13
2018-06-21T21:16:36.528Z,7.77
2018-06-21T21:19:05.929Z,6.10
2018-06-21T21:21:35.316Z,9.90
2018-06-21T21:24:04.802Z,8.50
2018-06-21T21:26:34.174Z,4.50
2018-06-21T21:29:03.704Z,6.43
2018-06-21T21:31:33.187Z,3.87
2018-06-21T21:34:02.598Z,7.33
2018-06-21T21:36:31.993Z,3.03
2018-06-21T21:39:01.395Z,4.33
2018-06-21T21:41:30.732Z,7.93
2018-06-21T21:44:00.113Z,8.53
2018-06-21T21:46:29.524Z,6.93
2018-06-21T21:48:58.855Z,5.10
2018-06-21T21:51:28.214Z,4.20
2018-06-21T21:53:57.595Z,9.50
2018-06-21T21:56:27.556Z,4.33
2018-06-21T21:58:56.939Z,4.70
2018-06-21T22:01:26.369Z,14.03
2018-06-21T22:03:55.811Z,3.27
2018-06-21T22:06:25.260Z,4.67
2018-06-21T22:08:54.649Z,3.40
2018-06-21T22:11:24.058Z,4.83
2018-06-21T22:13:57.596Z,6.00
2018-06-21T22:16:26.955Z,4.63
2018-06-21T22:18:56.371Z,3.30
2018-06-21T22:21:25.759Z,8.10
2018-06-21T22:23:55.192Z,5.83
2018-06-21T22:26:24.585Z,6.60
2018-06-21T22:28:53.972Z,5.90
2018-06-21T22:31:23.384Z,3.27
2018-06-21T22:33:52.738Z,3.83
2018-06-21T22:36:22.175Z,7.50
2018-06-21T22:38:51.574Z,2.93
2018-06-21T22:41:20.967Z,7.40
2018-06-21T22:43:50.335Z,5.53
2018-06-21T22:46:19.741Z,6.57
2018-06-21T22:48:49.183Z,3.87
2018-06-21T22:51:18.619Z,6.30
2018-06-21T22:53:48.031Z,3.37
2018-06-21T22:56:17.473Z,6.10
2018-06-21T22:58:46.905Z,10.10
2018-06-21T23:01:16.443Z,1.47
2018-06-21T23:03:45.977Z,7.00
2018-06-21T23:06:15.435Z,4.60
2018-06-21T23:08:44.782Z,3.93
2018-06-21T23:11:14.254Z,11.03
2018-06-21T23:13:43.678Z,5.13
2018-06-21T23:16:13.166Z,6.23
2018-06-21T23:18:59.538Z,9.90
2018-06-21T23:21:28.886Z,7.03
2018-06-21T23:23:58.254Z,3.13
2018-06-21T23:26:27.671Z,2.97
2018-06-21T23:28:57.107Z,4.30
2018-06-21T23:31:26.517Z,4.77
2018-06-21T23:33:56.026Z,16.53
2018-06-21T23:36:25.457Z,4.50
2018-06-21T23:38:54.877Z,9.53
2018-06-21T23:41:24.296Z,9.03
2018-06-21T23:43:53.657Z,6.73
2018-06-21T23:46:23.391Z,7.00
2018-06-21T23:48:52.794Z,10.97
2018-06-21T23:51:22.208Z,9.57
2018-06-21T23:53:51.631Z,11.60
2018-06-21T23:56:21.016Z,8.30
2018-06-21T23:58:50.482Z,10.30
